sensor_id;sensor_type;location;lat;lon;timestamp;P1;durP1;ratioP1;P2;durP2;ratioP2
40993;SDS011;26722;43.212;27.932;2023-11-19T00:00:28;2.20;;;1.27;;
40993;SDS011;26722;43.212;27.932;2023-11-19T00:03:52;2.40;;;1.42;;
40993;SDS011;26722;43.212;27.932;2023-11-19T00:07:16;3.03;;;1.55;;
40993;SDS011;26722;43.212;27.932;2023-11-19T00:10:40;4.43;;;1.25;;
40993;SDS011;26722;43.212;27.932;2023-11-19T00:14:04;3.10;;;1.60;;
40993;SDS011;26722;43.212;27.932;2023-11-19T00:17:28;2.08;;;1.20;;
40993;SDS011;26722;43.212;27.932;2023-11-19T00:20:52;1.83;;;1.30;;
40993;SDS011;26722;43.212;27.932;2023-11-19T00:24:16;2.25;;;1.50;;
40993;SDS011;26722;43.212;27.932;2023-11-19T00:27:40;3.15;;;1.67;;
40993;SDS011;26722;43.212;27.932;2023-11-19T00:31:04;4.95;;;1.73;;
40993;SDS011;26722;43.212;27.932;2023-11-19T00:34:30;2.88;;;1.83;;
40993;SDS011;26722;43.212;27.932;2023-11-19T00:37:56;3.60;;;2.22;;
40993;SDS011;26722;43.212;27.932;2023-11-19T00:41:20;3.28;;;1.63;;
40993;SDS011;26722;43.212;27.932;2023-11-19T00:44:45;5.30;;;2.20;;
40993;SDS011;26722;43.212;27.932;2023-11-19T00:48:09;2.72;;;1.83;;
40993;SDS011;26722;43.212;27.932;2023-11-19T00:51:33;4.57;;;2.08;;
40993;SDS011;26722;43.212;27.932;2023-11-19T00:54:57;4.85;;;2.30;;
40993;SDS011;26722;43.212;27.932;2023-11-19T00:58:58;3.30;;;2.00;;
40993;SDS011;26722;43.212;27.932;2023-11-19T01:02:22;5.32;;;2.83;;
40993;SDS011;26722;43.212;27.932;2023-11-19T01:05:46;4.85;;;2.50;;
40993;SDS011;26722;43.212;27.932;2023-11-19T01:09:10;4.50;;;2.67;;
40993;SDS011;26722;43.212;27.932;2023-11-19T01:12:34;5.13;;;2.33;;
40993;SDS011;26722;43.212;27.932;2023-11-19T01:15:58;3.28;;;1.88;;
40993;SDS011;26722;43.212;27.932;2023-11-19T01:19:22;3.65;;;2.35;;
40993;SDS011;26722;43.212;27.932;2023-11-19T01:22:46;5.55;;;2.95;;
40993;SDS011;26722;43.212;27.932;2023-11-19T01:26:11;5.85;;;3.08;;
40993;SDS011;26722;43.212;27.932;2023-11-19T01:29:35;4.38;;;2.10;;
40993;SDS011;26722;43.212;27.932;2023-11-19T01:32:59;3.88;;;2.55;;
40993;SDS011;26722;43.212;27.932;2023-11-19T01:36:22;6.25;;;3.03;;
40993;SDS011;26722;43.212;27.932;2023-11-19T01:39:46;4.45;;;1.98;;
40993;SDS011;26722;43.212;27.932;2023-11-19T01:43:10;3.47;;;2.15;;
40993;SDS011;26722;43.212;27.932;2023-11-19T01:46:37;4.65;;;2.53;;
40993;SDS011;26722;43.212;27.932;2023-11-19T01:50:05;4.85;;;2.58;;
40993;SDS011;26722;43.212;27.932;2023-11-19T01:53:30;4.18;;;2.30;;
40993;SDS011;26722;43.212;27.932;2023-11-19T01:56:55;5.40;;;2.80;;
40993;SDS011;26722;43.212;27.932;2023-11-19T02:00:21;6.50;;;2.83;;
40993;SDS011;26722;43.212;27.932;2023-11-19T02:03:45;8.75;;;3.08;;
40993;SDS011;26722;43.212;27.932;2023-11-19T02:07:10;4.45;;;2.53;;
40993;SDS011;26722;43.212;27.932;2023-11-19T02:10:34;4.13;;;2.53;;
40993;SDS011;26722;43.212;27.932;2023-11-19T02:13:58;6.03;;;3.03;;
40993;SDS011;26722;43.212;27.932;2023-11-19T02:17:30;5.30;;;3.05;;
40993;SDS011;26722;43.212;27.932;2023-11-19T02:20:57;5.60;;;3.05;;
40993;SDS011;26722;43.212;27.932;2023-11-19T02:24:22;5.47;;;3.03;;
40993;SDS011;26722;43.212;27.932;2023-11-19T02:27:57;7.18;;;3.33;;
40993;SDS011;26722;43.212;27.932;2023-11-19T02:31:22;3.72;;;2.17;;
40993;SDS011;26722;43.212;27.932;2023-11-19T02:34:46;5.03;;;2.50;;
40993;SDS011;26722;43.212;27.932;2023-11-19T02:38:10;5.00;;;2.75;;
40993;SDS011;26722;43.212;27.932;2023-11-19T02:41:37;4.15;;;2.50;;
40993;SDS011;26722;43.212;27.932;2023-11-19T02:45:01;5.28;;;2.63;;
40993;SDS011;26722;43.212;27.932;2023-11-19T02:48:31;6.63;;;3.38;;
40993;SDS011;26722;43.212;27.932;2023-11-19T02:51:55;7.03;;;3.60;;
40993;SDS011;26722;43.212;27.932;2023-11-19T02:55:23;7.88;;;4.50;;
40993;SDS011;26722;43.212;27.932;2023-11-19T02:58:51;6.78;;;3.50;;
40993;SDS011;26722;43.212;27.932;2023-11-19T03:02:15;7.10;;;3.33;;
40993;SDS011;26722;43.212;27.932;2023-11-19T03:05:45;12.63;;;4.50;;
40993;SDS011;26722;43.212;27.932;2023-11-19T03:09:09;8.48;;;4.32;;
40993;SDS011;26722;43.212;27.932;2023-11-19T03:12:34;7.25;;;4.15;;
40993;SDS011;26722;43.212;27.932;2023-11-19T03:15:58;10.68;;;4.88;;
40993;SDS011;26722;43.212;27.932;2023-11-19T03:19:22;9.52;;;5.32;;
40993;SDS011;26722;43.212;27.932;2023-11-19T03:22:46;9.52;;;5.53;;
40993;SDS011;26722;43.212;27.932;2023-11-19T03:26:10;11.73;;;4.60;;
40993;SDS011;26722;43.212;27.932;2023-11-19T03:29:34;15.43;;;7.22;;
40993;SDS011;26722;43.212;27.932;2023-11-19T03:32:58;15.18;;;6.45;;
40993;SDS011;26722;43.212;27.932;2023-11-19T03:37:00;11.55;;;6.00;;
40993;SDS011;26722;43.212;27.932;2023-11-19T03:40:24;11.75;;;6.30;;
40993;SDS011;26722;43.212;27.932;2023-11-19T03:43:48;12.82;;;5.78;;
40993;SDS011;26722;43.212;27.932;2023-11-19T03:47:12;13.57;;;6.05;;
40993;SDS011;26722;43.212;27.932;2023-11-19T03:50:36;11.40;;;6.20;;
40993;SDS011;26722;43.212;27.932;2023-11-19T03:54:00;11.50;;;6.25;;
40993;SDS011;26722;43.212;27.932;2023-11-19T03:57:24;16.55;;;8.85;;
40993;SDS011;26722;43.212;27.932;2023-11-19T04:00:48;12.23;;;6.35;;
40993;SDS011;26722;43.212;27.932;2023-11-19T04:04:12;15.90;;;6.70;;
40993;SDS011;26722;43.212;27.932;2023-11-19T04:07:36;18.52;;;8.23;;
40993;SDS011;26722;43.212;27.932;2023-11-19T04:11:01;23.15;;;8.27;;
40993;SDS011;26722;43.212;27.932;2023-11-19T04:14:25;11.88;;;5.82;;
40993;SDS011;26722;43.212;27.932;2023-11-19T04:22:09;15.20;;;6.75;;
40993;SDS011;26722;43.212;27.932;2023-11-19T04:25:34;18.75;;;8.73;;
40993;SDS011;26722;43.212;27.932;2023-11-19T04:28:59;15.15;;;7.00;;
40993;SDS011;26722;43.212;27.932;2023-11-19T04:32:23;16.20;;;7.90;;
40993;SDS011;26722;43.212;27.932;2023-11-19T04:35:47;19.15;;;9.18;;
40993;SDS011;26722;43.212;27.932;2023-11-19T04:39:11;15.38;;;7.38;;
40993;SDS011;26722;43.212;27.932;2023-11-19T04:42:36;13.65;;;6.97;;
40993;SDS011;26722;43.212;27.932;2023-11-19T04:45:59;12.20;;;5.07;;
40993;SDS011;26722;43.212;27.932;2023-11-19T04:49:23;17.58;;;7.63;;
40993;SDS011;26722;43.212;27.932;2023-11-19T04:52:47;14.55;;;8.18;;
40993;SDS011;26722;43.212;27.932;2023-11-19T04:56:11;18.83;;;8.13;;
40993;SDS011;26722;43.212;27.932;2023-11-19T04:59:38;18.77;;;8.15;;
40993;SDS011;26722;43.212;27.932;2023-11-19T05:03:02;17.15;;;9.02;;
40993;SDS011;26722;43.212;27.932;2023-11-19T05:06:29;17.77;;;8.77;;
40993;SDS011;26722;43.212;27.932;2023-11-19T05:09:53;16.13;;;7.30;;
40993;SDS011;26722;43.212;27.932;2023-11-19T05:13:17;17.45;;;7.97;;
40993;SDS011;26722;43.212;27.932;2023-11-19T05:16:43;14.68;;;7.22;;
40993;SDS011;26722;43.212;27.932;2023-11-19T05:20:07;12.80;;;6.95;;
40993;SDS011;26722;43.212;27.932;2023-11-19T05:23:34;17.80;;;8.38;;
40993;SDS011;26722;43.212;27.932;2023-11-19T05:26:59;13.95;;;7.25;;
40993;SDS011;26722;43.212;27.932;2023-11-19T05:30:22;16.42;;;7.60;;
40993;SDS011;26722;43.212;27.932;2023-11-19T05:33:46;13.85;;;7.80;;
40993;SDS011;26722;43.212;27.932;2023-11-19T05:37:10;16.13;;;7.35;;
40993;SDS011;26722;43.212;27.932;2023-11-19T05:40:34;12.80;;;6.35;;
40993;SDS011;26722;43.212;27.932;2023-11-19T05:43:53;10.38;;;5.70;;
40993;SDS011;26722;43.212;27.932;2023-11-19T05:47:17;19.70;;;6.60;;
40993;SDS011;26722;43.212;27.932;2023-11-19T05:50:41;12.57;;;6.05;;
40993;SDS011;26722;43.212;27.932;2023-11-19T05:54:06;16.55;;;8.70;;
40993;SDS011;26722;43.212;27.932;2023-11-19T05:57:34;14.30;;;7.22;;
40993;SDS011;26722;43.212;27.932;2023-11-19T06:00:58;13.52;;;7.35;;
40993;SDS011;26722;43.212;27.932;2023-11-19T06:04:22;13.48;;;6.65;;
40993;SDS011;26722;43.212;27.932;2023-11-19T06:07:46;9.40;;;5.50;;
40993;SDS011;26722;43.212;27.932;2023-11-19T06:11:12;13.10;;;5.95;;
40993;SDS011;26722;43.212;27.932;2023-11-19T06:14:36;18.23;;;6.65;;
40993;SDS011;26722;43.212;27.932;2023-11-19T06:17:59;10.65;;;5.57;;
40993;SDS011;26722;43.212;27.932;2023-11-19T06:21:24;12.13;;;5.90;;
40993;SDS011;26722;43.212;27.932;2023-11-19T06:24:48;12.48;;;5.65;;
40993;SDS011;26722;43.212;27.932;2023-11-19T06:28:12;10.48;;;5.82;;
40993;SDS011;26722;43.212;27.932;2023-11-19T06:31:35;13.15;;;6.65;;
40993;SDS011;26722;43.212;27.932;2023-11-19T06:34:59;11.65;;;5.60;;
40993;SDS011;26722;43.212;27.932;2023-11-19T06:38:24;13.98;;;6.10;;
40993;SDS011;26722;43.212;27.932;2023-11-19T06:41:48;9.50;;;5.40;;
40993;SDS011;26722;43.212;27.932;2023-11-19T06:45:12;9.23;;;5.38;;
40993;SDS011;26722;43.212;27.932;2023-11-19T06:48:40;9.80;;;5.93;;
40993;SDS011;26722;43.212;27.932;2023-11-19T06:52:04;13.43;;;6.50;;
40993;SDS011;26722;43.212;27.932;2023-11-19T06:55:25;10.75;;;5.82;;
40993;SDS011;26722;43.212;27.932;2023-11-19T06:58:50;15.15;;;6.20;;
40993;SDS011;26722;43.212;27.932;2023-11-19T07:01:44;12.77;;;7.38;;
40993;SDS011;26722;43.212;27.932;2023-11-19T07:04:23;9.60;;;5.93;;
40993;SDS011;26722;43.212;27.932;2023-11-19T07:06:58;13.57;;;6.28;;
40993;SDS011;26722;43.212;27.932;2023-11-19T07:09:27;11.05;;;5.88;;
40993;SDS011;26722;43.212;27.932;2023-11-19T07:11:53;13.32;;;6.55;;
40993;SDS011;26722;43.212;27.932;2023-11-19T07:14:18;12.30;;;6.50;;
40993;SDS011;26722;43.212;27.932;2023-11-19T07:16:51;10.57;;;6.07;;
40993;SDS011;26722;43.212;27.932;2023-11-19T07:19:20;10.18;;;6.07;;
40993;SDS011;26722;43.212;27.932;2023-11-19T07:22:10;11.25;;;6.07;;
40993;SDS011;26722;43.212;27.932;2023-11-19T07:25:31;15.15;;;7.50;;
40993;SDS011;26722;43.212;27.932;2023-11-19T07:28:50;15.70;;;6.68;;
40993;SDS011;26722;43.212;27.932;2023-11-19T07:32:11;13.55;;;7.40;;
40993;SDS011;26722;43.212;27.932;2023-11-19T07:35:20;19.88;;;6.10;;
40993;SDS011;26722;43.212;27.932;2023-11-19T07:37:46;13.80;;;6.40;;
40993;SDS011;26722;43.212;27.932;2023-11-19T07:40:15;12.90;;;7.82;;
40993;SDS011;26722;43.212;27.932;2023-11-19T07:42:40;13.20;;;7.28;;
40993;SDS011;26722;43.212;27.932;2023-11-19T07:45:06;17.55;;;8.07;;
40993;SDS011;26722;43.212;27.932;2023-11-19T07:47:32;13.70;;;6.72;;
40993;SDS011;26722;43.212;27.932;2023-11-19T07:49:57;16.80;;;7.95;;
40993;SDS011;26722;43.212;27.932;2023-11-19T07:52:23;14.85;;;7.13;;
40993;SDS011;26722;43.212;27.932;2023-11-19T07:54:48;12.75;;;6.32;;
40993;SDS011;26722;43.212;27.932;2023-11-19T07:57:14;11.60;;;6.65;;
40993;SDS011;26722;43.212;27.932;2023-11-19T07:59:39;12.45;;;7.18;;
40993;SDS011;26722;43.212;27.932;2023-11-19T08:02:05;12.55;;;7.18;;
40993;SDS011;26722;43.212;27.932;2023-11-19T08:04:30;11.90;;;6.90;;
40993;SDS011;26722;43.212;27.932;2023-11-19T08:06:56;19.08;;;6.53;;
40993;SDS011;26722;43.212;27.932;2023-11-19T08:09:21;13.48;;;7.55;;
40993;SDS011;26722;43.212;27.932;2023-11-19T08:11:48;13.43;;;7.18;;
40993;SDS011;26722;43.212;27.932;2023-11-19T08:14:13;15.85;;;7.95;;
40993;SDS011;26722;43.212;27.932;2023-11-19T08:16:39;11.13;;;6.95;;
40993;SDS011;26722;43.212;27.932;2023-11-19T08:19:05;10.20;;;6.05;;
40993;SDS011;26722;43.212;27.932;2023-11-19T08:21:30;11.23;;;6.90;;
40993;SDS011;26722;43.212;27.932;2023-11-19T08:23:56;12.35;;;6.65;;
40993;SDS011;26722;43.212;27.932;2023-11-19T08:26:21;12.38;;;6.22;;
40993;SDS011;26722;43.212;27.932;2023-11-19T08:28:47;19.13;;;7.38;;
40993;SDS011;26722;43.212;27.932;2023-11-19T08:31:12;9.82;;;5.75;;
40993;SDS011;26722;43.212;27.932;2023-11-19T08:33:38;10.88;;;5.60;;
40993;SDS011;26722;43.212;27.932;2023-11-19T08:36:03;16.88;;;6.55;;
40993;SDS011;26722;43.212;27.932;2023-11-19T08:38:29;14.82;;;7.38;;
40993;SDS011;26722;43.212;27.932;2023-11-19T08:40:55;12.63;;;7.10;;
40993;SDS011;26722;43.212;27.932;2023-11-19T08:43:27;20.70;;;7.80;;
40993;SDS011;26722;43.212;27.932;2023-11-19T08:45:53;14.65;;;7.95;;
40993;SDS011;26722;43.212;27.932;2023-11-19T08:48:18;15.80;;;5.82;;
40993;SDS011;26722;43.212;27.932;2023-11-19T08:50:44;15.63;;;7.13;;
40993;SDS011;26722;43.212;27.932;2023-11-19T08:53:09;11.70;;;7.25;;
40993;SDS011;26722;43.212;27.932;2023-11-19T08:55:35;13.05;;;6.82;;
40993;SDS011;26722;43.212;27.932;2023-11-19T08:58:00;11.20;;;5.72;;
40993;SDS011;26722;43.212;27.932;2023-11-19T09:00:26;12.80;;;6.05;;
40993;SDS011;26722;43.212;27.932;2023-11-19T09:02:51;14.70;;;6.40;;
40993;SDS011;26722;43.212;27.932;2023-11-19T09:05:17;11.88;;;6.35;;
40993;SDS011;26722;43.212;27.932;2023-11-19T09:07:42;17.55;;;7.47;;
40993;SDS011;26722;43.212;27.932;2023-11-19T09:10:08;14.40;;;7.85;;
40993;SDS011;26722;43.212;27.932;2023-11-19T09:12:34;14.52;;;6.50;;
40993;SDS011;26722;43.212;27.932;2023-11-19T09:15:00;13.57;;;5.80;;
40993;SDS011;26722;43.212;27.932;2023-11-19T09:17:25;13.15;;;6.63;;
40993;SDS011;26722;43.212;27.932;2023-11-19T09:19:51;14.93;;;7.85;;
40993;SDS011;26722;43.212;27.932;2023-11-19T09:22:16;10.00;;;5.70;;
40993;SDS011;26722;43.212;27.932;2023-11-19T09:24:42;10.13;;;6.00;;
40993;SDS011;26722;43.212;27.932;2023-11-19T09:27:09;10.68;;;5.93;;
40993;SDS011;26722;43.212;27.932;2023-11-19T09:29:34;11.32;;;6.22;;
40993;SDS011;26722;43.212;27.932;2023-11-19T09:32:00;11.95;;;6.30;;
40993;SDS011;26722;43.212;27.932;2023-11-19T09:34:26;18.23;;;6.93;;
40993;SDS011;26722;43.212;27.932;2023-11-19T09:36:51;13.60;;;6.93;;
40993;SDS011;26722;43.212;27.932;2023-11-19T09:39:17;11.93;;;6.15;;
40993;SDS011;26722;43.212;27.932;2023-11-19T09:41:43;10.77;;;6.35;;
40993;SDS011;26722;43.212;27.932;2023-11-19T09:44:10;16.92;;;6.68;;
40993;SDS011;26722;43.212;27.932;2023-11-19T09:46:37;13.55;;;5.63;;
40993;SDS011;26722;43.212;27.932;2023-11-19T09:49:06;12.52;;;6.32;;
40993;SDS011;26722;43.212;27.932;2023-11-19T09:51:34;13.77;;;6.68;;
40993;SDS011;26722;43.212;27.932;2023-11-19T09:54:00;15.40;;;6.75;;
40993;SDS011;26722;43.212;27.932;2023-11-19T09:56:26;12.65;;;7.03;;
40993;SDS011;26722;43.212;27.932;2023-11-19T09:58:54;12.32;;;6.00;;
40993;SDS011;26722;43.212;27.932;2023-11-19T10:01:20;12.48;;;7.68;;
40993;SDS011;26722;43.212;27.932;2023-11-19T10:03:46;13.82;;;6.85;;
40993;SDS011;26722;43.212;27.932;2023-11-19T10:06:12;12.73;;;7.43;;
40993;SDS011;26722;43.212;27.932;2023-11-19T10:08:41;14.73;;;7.40;;
40993;SDS011;26722;43.212;27.932;2023-11-19T10:11:07;11.90;;;5.97;;
40993;SDS011;26722;43.212;27.932;2023-11-19T10:13:35;16.42;;;8.05;;
40993;SDS011;26722;43.212;27.932;2023-11-19T10:16:21;13.18;;;6.22;;
40993;SDS011;26722;43.212;27.932;2023-11-19T10:18:55;13.75;;;7.15;;
40993;SDS011;26722;43.212;27.932;2023-11-19T10:21:21;11.80;;;6.30;;
40993;SDS011;26722;43.212;27.932;2023-11-19T10:23:56;11.70;;;6.85;;
40993;SDS011;26722;43.212;27.932;2023-11-19T10:26:24;12.00;;;5.53;;
40993;SDS011;26722;43.212;27.932;2023-11-19T10:28:51;16.75;;;8.45;;
40993;SDS011;26722;43.212;27.932;2023-11-19T10:31:17;19.92;;;9.15;;
40993;SDS011;26722;43.212;27.932;2023-11-19T10:33:46;11.90;;;6.43;;
40993;SDS011;26722;43.212;27.932;2023-11-19T10:36:12;13.80;;;7.95;;
40993;SDS011;26722;43.212;27.932;2023-11-19T10:38:38;10.77;;;6.75;;
40993;SDS011;26722;43.212;27.932;2023-11-19T10:41:05;13.63;;;6.47;;
40993;SDS011;26722;43.212;27.932;2023-11-19T10:43:31;16.65;;;8.40;;
40993;SDS011;26722;43.212;27.932;2023-11-19T10:46:12;12.77;;;7.90;;
40993;SDS011;26722;43.212;27.932;2023-11-19T10:48:38;11.95;;;6.20;;
40993;SDS011;26722;43.212;27.932;2023-11-19T10:51:06;10.55;;;5.40;;
40993;SDS011;26722;43.212;27.932;2023-11-19T10:53:36;9.13;;;5.13;;
40993;SDS011;26722;43.212;27.932;2023-11-19T10:56:06;7.35;;;4.78;;
40993;SDS011;26722;43.212;27.932;2023-11-19T10:58:36;10.82;;;5.15;;
40993;SDS011;26722;43.212;27.932;2023-11-19T11:01:07;11.43;;;5.90;;
40993;SDS011;26722;43.212;27.932;2023-11-19T11:03:41;8.88;;;4.80;;
40993;SDS011;26722;43.212;27.932;2023-11-19T11:06:10;8.93;;;4.50;;
40993;SDS011;26722;43.212;27.932;2023-11-19T11:08:38;10.65;;;5.90;;
40993;SDS011;26722;43.212;27.932;2023-11-19T11:11:04;11.55;;;4.95;;
40993;SDS011;26722;43.212;27.932;2023-11-19T11:13:33;11.80;;;6.28;;
40993;SDS011;26722;43.212;27.932;2023-11-19T11:16:00;9.65;;;5.28;;
40993;SDS011;26722;43.212;27.932;2023-11-19T11:18:29;12.18;;;5.80;;
40993;SDS011;26722;43.212;27.932;2023-11-19T11:21:02;13.23;;;7.00;;
40993;SDS011;26722;43.212;27.932;2023-11-19T11:29:10;10.48;;;5.20;;
40993;SDS011;26722;43.212;27.932;2023-11-19T11:34:57;8.63;;;5.45;;
40993;SDS011;26722;43.212;27.932;2023-11-19T11:37:37;10.15;;;5.70;;
40993;SDS011;26722;43.212;27.932;2023-11-19T11:40:13;11.20;;;5.93;;
40993;SDS011;26722;43.212;27.932;2023-11-19T11:42:40;9.63;;;5.63;;
40993;SDS011;26722;43.212;27.932;2023-11-19T11:45:11;12.00;;;6.05;;
40993;SDS011;26722;43.212;27.932;2023-11-19T11:50:13;9.45;;;4.70;;
40993;SDS011;26722;43.212;27.932;2023-11-19T11:55:24;12.38;;;6.45;;
40993;SDS011;26722;43.212;27.932;2023-11-19T11:57:49;13.02;;;5.85;;
40993;SDS011;26722;43.212;27.932;2023-11-19T12:00:21;13.68;;;7.05;;
40993;SDS011;26722;43.212;27.932;2023-11-19T12:02:48;13.38;;;7.15;;
40993;SDS011;26722;43.212;27.932;2023-11-19T12:05:14;11.52;;;6.20;;
40993;SDS011;26722;43.212;27.932;2023-11-19T12:07:39;10.88;;;6.28;;
40993;SDS011;26722;43.212;27.932;2023-11-19T12:10:09;15.10;;;7.82;;
40993;SDS011;26722;43.212;27.932;2023-11-19T12:12:37;13.13;;;6.45;;
40993;SDS011;26722;43.212;27.932;2023-11-19T12:15:06;13.35;;;6.38;;
40993;SDS011;26722;43.212;27.932;2023-11-19T12:17:40;13.48;;;7.45;;
40993;SDS011;26722;43.212;27.932;2023-11-19T12:20:09;12.93;;;6.25;;
40993;SDS011;26722;43.212;27.932;2023-11-19T12:22:37;12.48;;;7.20;;
40993;SDS011;26722;43.212;27.932;2023-11-19T12:25:04;12.63;;;6.97;;
40993;SDS011;26722;43.212;27.932;2023-11-19T12:27:34;16.20;;;7.97;;
40993;SDS011;26722;43.212;27.932;2023-11-19T12:30:01;13.15;;;6.25;;
40993;SDS011;26722;43.212;27.932;2023-11-19T12:35:08;12.05;;;6.68;;
40993;SDS011;26722;43.212;27.932;2023-11-19T12:37:42;15.52;;;7.47;;
40993;SDS011;26722;43.212;27.932;2023-11-19T12:40:15;15.45;;;6.85;;
40993;SDS011;26722;43.212;27.932;2023-11-19T12:42:45;10.63;;;5.68;;
40993;SDS011;26722;43.212;27.932;2023-11-19T12:45:12;15.75;;;7.28;;
40993;SDS011;26722;43.212;27.932;2023-11-19T12:47:39;12.35;;;6.57;;
40993;SDS011;26722;43.212;27.932;2023-11-19T12:50:08;14.27;;;7.60;;
40993;SDS011;26722;43.212;27.932;2023-11-19T12:52:34;13.48;;;7.32;;
40993;SDS011;26722;43.212;27.932;2023-11-19T12:55:01;13.00;;;6.90;;
40993;SDS011;26722;43.212;27.932;2023-11-19T12:57:39;16.77;;;8.73;;
40993;SDS011;26722;43.212;27.932;2023-11-19T13:00:06;11.32;;;6.15;;
40993;SDS011;26722;43.212;27.932;2023-11-19T13:02:56;18.02;;;8.57;;
40993;SDS011;26722;43.212;27.932;2023-11-19T13:10:25;17.63;;;9.82;;
40993;SDS011;26722;43.212;27.932;2023-11-19T13:13:01;19.33;;;9.38;;
40993;SDS011;26722;43.212;27.932;2023-11-19T13:15:31;14.77;;;7.43;;
40993;SDS011;26722;43.212;27.932;2023-11-19T13:17:58;19.55;;;9.77;;
40993;SDS011;26722;43.212;27.932;2023-11-19T13:20:23;15.13;;;7.13;;
40993;SDS011;26722;43.212;27.932;2023-11-19T13:22:55;15.02;;;7.78;;
40993;SDS011;26722;43.212;27.932;2023-11-19T13:25:22;20.40;;;10.07;;
40993;SDS011;26722;43.212;27.932;2023-11-19T13:27:48;22.65;;;10.55;;
40993;SDS011;26722;43.212;27.932;2023-11-19T13:30:13;15.93;;;7.47;;
40993;SDS011;26722;43.212;27.932;2023-11-19T13:32:39;17.48;;;8.50;;
40993;SDS011;26722;43.212;27.932;2023-11-19T13:35:05;21.92;;;11.38;;
40993;SDS011;26722;43.212;27.932;2023-11-19T13:37:33;20.88;;;11.43;;
40993;SDS011;26722;43.212;27.932;2023-11-19T13:39:59;19.85;;;8.23;;
40993;SDS011;26722;43.212;27.932;2023-11-19T13:42:25;22.08;;;11.98;;
40993;SDS011;26722;43.212;27.932;2023-11-19T13:44:50;20.80;;;11.25;;
40993;SDS011;26722;43.212;27.932;2023-11-19T13:47:16;19.83;;;9.38;;
40993;SDS011;26722;43.212;27.932;2023-11-19T13:49:41;18.75;;;8.43;;
40993;SDS011;26722;43.212;27.932;2023-11-19T13:52:06;15.70;;;8.32;;
40993;SDS011;26722;43.212;27.932;2023-11-19T13:54:32;17.27;;;8.77;;
40993;SDS011;26722;43.212;27.932;2023-11-19T13:56:57;23.85;;;12.02;;
40993;SDS011;26722;43.212;27.932;2023-11-19T13:59:23;17.60;;;8.38;;
40993;SDS011;26722;43.212;27.932;2023-11-19T14:01:49;17.98;;;8.95;;
40993;SDS011;26722;43.212;27.932;2023-11-19T14:04:14;19.45;;;9.10;;
40993;SDS011;26722;43.212;27.932;2023-11-19T14:06:40;15.32;;;6.68;;
40993;SDS011;26722;43.212;27.932;2023-11-19T14:09:06;14.68;;;6.85;;
40993;SDS011;26722;43.212;27.932;2023-11-19T14:11:33;18.88;;;10.00;;
40993;SDS011;26722;43.212;27.932;2023-11-19T14:13:58;17.77;;;8.90;;
40993;SDS011;26722;43.212;27.932;2023-11-19T14:16:27;19.65;;;9.85;;
40993;SDS011;26722;43.212;27.932;2023-11-19T14:18:52;15.20;;;7.95;;
40993;SDS011;26722;43.212;27.932;2023-11-19T14:21:19;21.13;;;11.73;;
40993;SDS011;26722;43.212;27.932;2023-11-19T14:23:45;16.45;;;8.32;;
40993;SDS011;26722;43.212;27.932;2023-11-19T14:26:11;18.65;;;9.07;;
40993;SDS011;26722;43.212;27.932;2023-11-19T14:28:37;18.40;;;9.02;;
40993;SDS011;26722;43.212;27.932;2023-11-19T14:31:03;20.80;;;10.20;;
40993;SDS011;26722;43.212;27.932;2023-11-19T14:33:29;24.02;;;11.70;;
40993;SDS011;26722;43.212;27.932;2023-11-19T14:35:54;14.82;;;7.82;;
40993;SDS011;26722;43.212;27.932;2023-11-19T14:38:20;20.90;;;9.77;;
40993;SDS011;26722;43.212;27.932;2023-11-19T14:40:45;19.40;;;9.73;;
40993;SDS011;26722;43.212;27.932;2023-11-19T14:43:11;21.33;;;11.02;;
40993;SDS011;26722;43.212;27.932;2023-11-19T14:45:36;21.80;;;11.13;;
40993;SDS011;26722;43.212;27.932;2023-11-19T14:48:02;22.95;;;10.82;;
40993;SDS011;26722;43.212;27.932;2023-11-19T14:50:27;16.15;;;8.35;;
40993;SDS011;26722;43.212;27.932;2023-11-19T14:52:53;22.10;;;10.70;;
40993;SDS011;26722;43.212;27.932;2023-11-19T14:55:19;20.40;;;9.60;;
40993;SDS011;26722;43.212;27.932;2023-11-19T14:57:44;20.00;;;10.68;;
40993;SDS011;26722;43.212;27.932;2023-11-19T15:00:10;20.45;;;10.75;;
40993;SDS011;26722;43.212;27.932;2023-11-19T15:02:39;17.70;;;8.77;;
40993;SDS011;26722;43.212;27.932;2023-11-19T15:05:06;20.08;;;10.15;;
40993;SDS011;26722;43.212;27.932;2023-11-19T15:07:34;15.23;;;6.47;;
40993;SDS011;26722;43.212;27.932;2023-11-19T15:10:01;17.90;;;9.80;;
40993;SDS011;26722;43.212;27.932;2023-11-19T15:12:27;21.65;;;11.38;;
40993;SDS011;26722;43.212;27.932;2023-11-19T15:14:53;21.92;;;11.45;;
40993;SDS011;26722;43.212;27.932;2023-11-19T15:17:18;24.02;;;11.38;;
40993;SDS011;26722;43.212;27.932;2023-11-19T15:19:44;14.27;;;7.40;;
40993;SDS011;26722;43.212;27.932;2023-11-19T15:22:11;22.35;;;11.25;;
40993;SDS011;26722;43.212;27.932;2023-11-19T15:24:36;21.02;;;10.80;;
40993;SDS011;26722;43.212;27.932;2023-11-19T15:27:04;15.75;;;8.32;;
40993;SDS011;26722;43.212;27.932;2023-11-19T15:29:30;21.63;;;10.65;;
40993;SDS011;26722;43.212;27.932;2023-11-19T15:31:58;15.27;;;7.82;;
40993;SDS011;26722;43.212;27.932;2023-11-19T15:34:23;14.00;;;6.25;;
40993;SDS011;26722;43.212;27.932;2023-11-19T15:36:50;14.90;;;7.55;;
40993;SDS011;26722;43.212;27.932;2023-11-19T15:39:15;20.65;;;10.10;;
40993;SDS011;26722;43.212;27.932;2023-11-19T15:41:41;16.85;;;8.25;;
40993;SDS011;26722;43.212;27.932;2023-11-19T15:44:07;25.02;;;10.90;;
40993;SDS011;26722;43.212;27.932;2023-11-19T15:46:33;17.63;;;7.65;;
40993;SDS011;26722;43.212;27.932;2023-11-19T15:48:58;18.10;;;9.63;;
40993;SDS011;26722;43.212;27.932;2023-11-19T15:51:24;13.32;;;6.78;;
40993;SDS011;26722;43.212;27.932;2023-11-19T15:53:49;18.13;;;9.48;;
40993;SDS011;26722;43.212;27.932;2023-11-19T15:56:14;21.38;;;11.20;;
40993;SDS011;26722;43.212;27.932;2023-11-19T15:58:40;19.45;;;10.77;;
40993;SDS011;26722;43.212;27.932;2023-11-19T16:01:06;23.90;;;12.25;;
40993;SDS011;26722;43.212;27.932;2023-11-19T16:03:33;25.52;;;13.25;;
40993;SDS011;26722;43.212;27.932;2023-11-19T16:05:59;24.77;;;12.82;;
40993;SDS011;26722;43.212;27.932;2023-11-19T16:08:24;25.48;;;12.32;;
40993;SDS011;26722;43.212;27.932;2023-11-19T16:10:50;27.08;;;14.18;;
40993;SDS011;26722;43.212;27.932;2023-11-19T16:13:16;26.50;;;13.25;;
40993;SDS011;26722;43.212;27.932;2023-11-19T16:15:41;23.88;;;12.60;;
40993;SDS011;26722;43.212;27.932;2023-11-19T16:18:07;25.73;;;12.75;;
40993;SDS011;26722;43.212;27.932;2023-11-19T16:20:35;25.88;;;13.18;;
40993;SDS011;26722;43.212;27.932;2023-11-19T16:23:01;23.00;;;12.75;;
40993;SDS011;26722;43.212;27.932;2023-11-19T16:25:29;29.90;;;13.82;;
40993;SDS011;26722;43.212;27.932;2023-11-19T16:27:54;28.60;;;14.23;;
40993;SDS011;26722;43.212;27.932;2023-11-19T16:30:21;23.88;;;12.65;;
40993;SDS011;26722;43.212;27.932;2023-11-19T16:32:51;19.77;;;10.05;;
40993;SDS011;26722;43.212;27.932;2023-11-19T16:35:18;25.30;;;11.80;;
40993;SDS011;26722;43.212;27.932;2023-11-19T16:37:44;23.65;;;13.13;;
40993;SDS011;26722;43.212;27.932;2023-11-19T16:40:10;25.85;;;13.18;;
40993;SDS011;26722;43.212;27.932;2023-11-19T16:42:37;29.23;;;14.35;;
40993;SDS011;26722;43.212;27.932;2023-11-19T16:45:03;29.55;;;14.48;;
40993;SDS011;26722;43.212;27.932;2023-11-19T16:47:34;27.90;;;14.63;;
40993;SDS011;26722;43.212;27.932;2023-11-19T16:50:00;26.33;;;14.05;;